Terminal Aerodrome Forecast
Issued by NWS

Current Version | Previous Version | Text Only | Print | Product List | Glossary On
Versions: 1 2 3 4 5 6 7 8 9 10 11 12 13 14 15 16 17 18 19 20 21 22 23 24 25 26 27 28 29
000
FTUS44 KEWX 181738
TAFSSF
TAF
KSSF 181738Z 1818/1918 03006KT P6SM OVC021
     FM182200 18004KT P6SM BKN040
     FM190500 19005KT P6SM BKN012
     FM191700 19007KT P6SM SCT035=

USA.gov is the U.S. government's official web portal to all federal, state and local government web resources and services.